createdAt,value
2018-07-06T00:03:34.925Z,22.10
2018-07-06T00:08:49.570Z,22.10
2018-07-06T00:14:04.222Z,22.10
2018-07-06T00:19:19.008Z,22.20
2018-07-06T00:24:33.642Z,22.20
2018-07-06T00:29:48.491Z,22.20
2018-07-06T00:35:03.300Z,22.00
2018-07-06T00:40:18.296Z,22.00
2018-07-06T00:45:32.825Z,22.00
2018-07-06T00:50:47.789Z,22.00
2018-07-06T00:56:02.527Z,21.90
2018-07-06T01:01:19.194Z,22.00
2018-07-06T01:06:34.076Z,21.90
2018-07-06T01:11:49.027Z,22.10
2018-07-06T01:17:03.846Z,22.10
2018-07-06T01:22:19.578Z,21.90
2018-07-06T01:27:34.492Z,22.00
2018-07-06T01:32:51.326Z,22.00
2018-07-06T01:38:06.053Z,21.90
2018-07-06T01:43:21.129Z,21.90
2018-07-06T01:48:36.914Z,21.80
2018-07-06T01:53:51.607Z,21.80
2018-07-06T01:59:07.290Z,21.80
2018-07-06T02:04:22.023Z,21.80
2018-07-06T02:09:38.082Z,21.70
2018-07-06T02:14:52.789Z,21.70
2018-07-06T02:20:07.450Z,21.70
2018-07-06T02:25:22.164Z,21.70
2018-07-06T02:30:36.967Z,21.60
2018-07-06T02:35:57.124Z,21.60
2018-07-06T02:41:15.948Z,21.50
2018-07-06T02:46:30.671Z,21.50
2018-07-06T02:51:45.458Z,21.50
2018-07-06T02:57:00.512Z,21.50
2018-07-06T03:02:15.102Z,21.40
2018-07-06T03:07:31.979Z,21.30
2018-07-06T03:12:47.342Z,21.20
2018-07-06T03:18:02.012Z,21.10
2018-07-06T03:23:21.749Z,21.00
2018-07-06T03:28:36.734Z,21.00
2018-07-06T03:33:51.254Z,20.90
2018-07-06T03:39:06.420Z,20.90
2018-07-06T03:44:21.080Z,20.80
2018-07-06T03:49:35.828Z,20.80
2018-07-06T03:54:56.131Z,20.60
2018-07-06T04:00:11.461Z,20.70
2018-07-06T04:05:26.077Z,20.60
2018-07-06T04:10:41.383Z,20.50
2018-07-06T04:15:56.350Z,20.50
2018-07-06T04:21:10.934Z,20.30
2018-07-06T04:26:25.951Z,20.50
2018-07-06T04:31:40.711Z,20.70
2018-07-06T04:36:55.256Z,20.60
2018-07-06T04:42:10.162Z,20.70
2018-07-06T04:47:24.985Z,20.60
2018-07-06T04:52:43.820Z,20.70
2018-07-06T04:57:58.736Z,20.80
2018-07-06T05:03:14.535Z,20.80
2018-07-06T05:08:29.246Z,20.80
2018-07-06T05:13:44.991Z,20.60
2018-07-06T05:18:59.831Z,20.50
2018-07-06T05:24:18.437Z,20.60
2018-07-06T05:29:33.983Z,20.80
2018-07-06T05:34:48.684Z,21.00
2018-07-06T05:40:03.371Z,21.20
2018-07-06T05:50:29.936Z,21.50
2018-07-06T05:55:44.604Z,21.60
2018-07-06T06:00:59.253Z,21.70
2018-07-06T06:06:14.189Z,21.70
2018-07-06T06:11:17.828Z,21.70
2018-07-06T06:16:21.978Z,21.90
2018-07-06T06:21:25.446Z,22.00
2018-07-06T06:26:30.910Z,22.00
2018-07-06T06:31:34.515Z,22.10
2018-07-06T06:36:39.827Z,22.00
2018-07-06T06:41:44.781Z,22.10
2018-07-06T06:46:48.451Z,22.30
2018-07-06T06:56:55.398Z,22.70
2018-07-06T07:01:58.902Z,23.00
2018-07-06T07:07:02.359Z,23.30
2018-07-06T07:12:06.709Z,23.60
2018-07-06T07:17:11.354Z,23.70
2018-07-06T07:22:15.475Z,24.20
2018-07-06T07:27:19.113Z,24.80
2018-07-06T07:32:24.731Z,24.90
2018-07-06T07:42:37.695Z,25.10
2018-07-06T07:47:41.372Z,25.10
2018-07-06T07:52:56.102Z,25.10
2018-07-06T07:58:05.697Z,25.40
2018-07-06T08:03:09.034Z,25.50
2018-07-06T08:08:12.730Z,25.50
2018-07-06T08:13:17.847Z,25.60
2018-07-06T08:18:22.126Z,25.80
2018-07-06T08:23:28.984Z,26.00
2018-07-06T08:28:35.126Z,26.10
2018-07-06T08:33:46.500Z,26.20
2018-07-06T08:38:49.962Z,26.70
2018-07-06T08:43:55.550Z,27.00
2018-07-06T08:48:59.096Z,26.90
2018-07-06T08:54:02.618Z,27.10
2018-07-06T08:59:07.479Z,26.80
2018-07-06T09:04:11.520Z,26.80
2018-07-06T09:09:15.448Z,27.20
2018-07-06T09:14:18.946Z,27.60
2018-07-06T09:19:24.219Z,27.80
2018-07-06T09:24:27.643Z,28.20
2018-07-06T09:29:34.842Z,28.80
2018-07-06T09:34:38.569Z,28.60
2018-07-06T09:39:43.805Z,28.80
2018-07-06T09:44:47.321Z,28.90
2018-07-06T09:49:50.816Z,29.30
2018-07-06T09:54:54.600Z,29.40
2018-07-06T09:59:58.079Z,29.50
2018-07-06T10:05:04.000Z,29.90
2018-07-06T10:10:07.886Z,30.40
2018-07-06T10:15:11.668Z,30.60
2018-07-06T10:20:17.359Z,30.20
2018-07-06T10:25:22.457Z,30.50
2018-07-06T10:30:40.860Z,30.20
2018-07-06T10:35:45.455Z,30.30
2018-07-06T10:40:49.699Z,30.50
2018-07-06T10:45:53.542Z,30.90
2018-07-06T10:50:57.085Z,31.20
2018-07-06T10:56:00.846Z,31.50
2018-07-06T11:01:04.609Z,31.20
2018-07-06T11:06:08.198Z,31.70
2018-07-06T11:11:13.685Z,32.20
2018-07-06T11:16:21.899Z,31.50
2018-07-06T11:27:39.002Z,30.70
2018-07-06T11:32:50.530Z,30.10
2018-07-06T11:38:01.014Z,30.20
2018-07-06T11:43:04.470Z,30.90
2018-07-06T11:54:03.882Z,31.40
2018-07-06T12:16:03.181Z,28.90
2018-07-06T12:21:24.663Z,29.90
2018-07-06T12:26:30.330Z,30.60
2018-07-06T12:37:14.971Z,31.00
2018-07-06T12:42:18.497Z,30.70
2018-07-06T12:47:22.027Z,30.60
2018-07-06T12:52:25.507Z,29.80
2018-07-06T12:57:31.354Z,29.40
2018-07-06T13:02:42.961Z,29.60
2018-07-06T13:07:46.736Z,30.10
2018-07-06T13:12:50.909Z,29.70
2018-07-06T13:17:56.336Z,29.20
2018-07-06T13:22:59.835Z,29.20
2018-07-06T13:28:03.392Z,29.00
2018-07-06T13:33:07.005Z,28.90
2018-07-06T13:38:12.895Z,29.20
2018-07-06T13:43:16.735Z,30.00
2018-07-06T13:48:20.311Z,30.80
2018-07-06T13:53:23.982Z,31.30
2018-07-06T13:58:27.470Z,32.00
2018-07-06T14:03:30.989Z,31.30
2018-07-06T14:08:34.871Z,31.40
2018-07-06T14:13:38.326Z,31.30
2018-07-06T14:18:41.907Z,31.40
2018-07-06T14:23:45.460Z,31.10
2018-07-06T14:28:52.685Z,31.10
2018-07-06T14:33:56.269Z,31.70
2018-07-06T14:39:00.175Z,32.00
2018-07-06T14:44:03.753Z,32.10
2018-07-06T14:49:07.234Z,31.50
2018-07-06T14:54:10.843Z,31.00
2018-07-06T14:59:14.636Z,31.20
2018-07-06T15:04:20.233Z,31.50
2018-07-06T15:09:26.172Z,31.80
2018-07-06T15:14:29.983Z,31.30
2018-07-06T15:19:34.028Z,31.20
2018-07-06T15:24:38.627Z,30.80
2018-07-06T15:35:20.874Z,30.60
2018-07-06T15:46:09.405Z,30.30
2018-07-06T15:51:13.360Z,29.60
2018-07-06T15:56:20.558Z,29.40
2018-07-06T16:01:27.267Z,29.30
2018-07-06T16:06:30.782Z,29.10
2018-07-06T16:11:36.055Z,29.60
2018-07-06T16:16:39.588Z,30.10
2018-07-06T16:21:43.268Z,30.30
2018-07-06T16:26:47.606Z,29.70
2018-07-06T16:31:54.246Z,29.40
2018-07-06T16:36:57.885Z,29.10
2018-07-06T16:42:03.151Z,29.40
2018-07-06T16:47:07.846Z,29.30
2018-07-06T16:52:11.332Z,29.10
2018-07-06T16:57:19.015Z,29.00
2018-07-06T17:02:22.517Z,29.40
2018-07-06T17:07:29.170Z,29.30
2018-07-06T17:12:33.103Z,30.10
2018-07-06T17:17:36.740Z,30.50
2018-07-06T17:22:40.560Z,31.30
2018-07-06T17:27:44.795Z,32.40
2018-07-06T17:32:50.527Z,32.30
2018-07-06T17:37:57.062Z,32.30
2018-07-06T17:43:00.991Z,32.90
2018-07-06T17:48:05.032Z,33.00
2018-07-06T17:53:11.728Z,33.20
2018-07-06T17:58:15.536Z,32.80
2018-07-06T18:03:19.121Z,32.50
2018-07-06T18:08:22.600Z,33.00
2018-07-06T18:13:28.570Z,32.70
2018-07-06T18:18:32.510Z,31.40
2018-07-06T18:23:36.567Z,30.50
2018-07-06T18:28:41.216Z,29.50
2018-07-06T18:33:45.932Z,28.00
2018-07-06T18:38:49.446Z,27.00
2018-07-06T18:43:53.942Z,26.50
2018-07-06T18:48:57.598Z,25.90
2018-07-06T18:59:09.194Z,25.30
2018-07-06T19:04:17.318Z,25.20
2018-07-06T19:09:21.203Z,25.10
2018-07-06T19:14:24.898Z,25.10
2018-07-06T19:19:30.107Z,24.90
2018-07-06T19:24:36.836Z,24.70
2018-07-06T19:29:48.977Z,24.70
2018-07-06T19:34:58.407Z,24.60
2018-07-06T19:40:11.277Z,24.40
2018-07-06T19:45:15.897Z,24.10
2018-07-06T19:50:21.651Z,24.00
2018-07-06T19:55:38.047Z,24.00
2018-07-06T20:00:51.755Z,24.00
2018-07-06T20:05:57.667Z,23.80
2018-07-06T20:11:06.967Z,23.60
2018-07-06T20:21:47.891Z,23.10
2018-07-06T20:26:57.920Z,22.90
2018-07-06T20:32:09.117Z,22.70
2018-07-06T20:37:50.065Z,22.50
2018-07-06T20:43:00.027Z,22.30
2018-07-06T20:48:06.145Z,22.10
2018-07-06T20:53:15.351Z,22.00
2018-07-06T20:58:19.264Z,21.80
2018-07-06T21:03:28.988Z,21.70
2018-07-06T21:08:37.195Z,21.60
2018-07-06T21:13:40.815Z,21.30
2018-07-06T21:18:47.570Z,21.10
2018-07-06T21:23:53.334Z,21.00
2018-07-06T21:28:58.142Z,20.90
2018-07-06T21:39:09.005Z,20.60
2018-07-06T21:44:12.501Z,20.60
2018-07-06T21:49:16.286Z,20.60
2018-07-06T21:54:29.674Z,20.40
2018-07-06T22:00:39.679Z,20.20
2018-07-06T22:05:48.055Z,20.20
2018-07-06T22:10:53.472Z,20.10
2018-07-06T22:15:57.189Z,20.10
2018-07-06T22:21:00.748Z,20.00
2018-07-06T22:31:07.538Z,19.70
2018-07-06T22:36:13.881Z,19.60
2018-07-06T22:41:17.983Z,19.50
2018-07-06T22:46:21.438Z,19.40
2018-07-06T22:51:25.746Z,19.20
2018-07-06T22:56:31.258Z,19.20
2018-07-06T23:01:34.903Z,19.10
2018-07-06T23:06:38.450Z,19.10
2018-07-06T23:12:50.514Z,19.00
2018-07-06T23:18:04.106Z,18.90
2018-07-06T23:23:12.573Z,18.70
2018-07-06T23:28:19.803Z,18.70
2018-07-06T23:38:51.576Z,18.60
2018-07-06T23:43:55.064Z,18.50
2018-07-06T23:48:58.491Z,18.50
2018-07-06T23:54:01.926Z,18.40
2018-07-06T23:59:09.399Z,18.30
